sensor_id;sensor_type;location;lat;lon;timestamp;P1;durP1;ratioP1;P2;durP2;ratioP2
44120;SDS011;29783;52.504;13.478;2023-10-09T00:00:14;3.38;;;2.20;;
44120;SDS011;29783;52.504;13.478;2023-10-09T00:03:01;4.80;;;2.53;;
44120;SDS011;29783;52.504;13.478;2023-10-09T00:05:28;2.67;;;1.98;;
44120;SDS011;29783;52.504;13.478;2023-10-09T00:08:11;5.05;;;2.17;;
44120;SDS011;29783;52.504;13.478;2023-10-09T00:10:56;2.30;;;1.85;;
44120;SDS011;29783;52.504;13.478;2023-10-09T00:13:41;2.85;;;1.90;;
44120;SDS011;29783;52.504;13.478;2023-10-09T00:16:14;3.72;;;2.22;;
44120;SDS011;29783;52.504;13.478;2023-10-09T00:18:41;6.32;;;2.53;;
44120;SDS011;29783;52.504;13.478;2023-10-09T00:21:15;3.65;;;2.20;;
44120;SDS011;29783;52.504;13.478;2023-10-09T00:23:47;5.10;;;2.00;;
44120;SDS011;29783;52.504;13.478;2023-10-09T00:26:24;3.13;;;1.70;;
44120;SDS011;29783;52.504;13.478;2023-10-09T00:28:50;3.58;;;2.20;;
44120;SDS011;29783;52.504;13.478;2023-10-09T00:31:19;5.13;;;2.00;;
44120;SDS011;29783;52.504;13.478;2023-10-09T00:33:55;6.22;;;2.13;;
44120;SDS011;29783;52.504;13.478;2023-10-09T00:36:21;2.72;;;1.80;;
44120;SDS011;29783;52.504;13.478;2023-10-09T00:38:53;5.38;;;2.13;;
44120;SDS011;29783;52.504;13.478;2023-10-09T00:41:19;5.10;;;2.20;;
44120;SDS011;29783;52.504;13.478;2023-10-09T00:43:47;5.57;;;1.92;;
44120;SDS011;29783;52.504;13.478;2023-10-09T00:46:15;3.97;;;2.00;;
44120;SDS011;29783;52.504;13.478;2023-10-09T00:48:49;3.35;;;2.10;;
44120;SDS011;29783;52.504;13.478;2023-10-09T00:51:24;5.65;;;1.98;;
44120;SDS011;29783;52.504;13.478;2023-10-09T00:53:55;2.55;;;1.63;;
44120;SDS011;29783;52.504;13.478;2023-10-09T00:56:48;4.60;;;1.83;;
44120;SDS011;29783;52.504;13.478;2023-10-09T00:59:22;9.53;;;2.20;;
44120;SDS011;29783;52.504;13.478;2023-10-09T01:01:50;4.28;;;1.85;;
44120;SDS011;29783;52.504;13.478;2023-10-09T01:04:23;5.03;;;2.10;;
44120;SDS011;29783;52.504;13.478;2023-10-09T01:06:51;3.65;;;1.83;;
44120;SDS011;29783;52.504;13.478;2023-10-09T01:09:34;3.08;;;1.80;;
44120;SDS011;29783;52.504;13.478;2023-10-09T01:12:03;5.78;;;2.13;;
44120;SDS011;29783;52.504;13.478;2023-10-09T01:14:30;12.57;;;2.20;;
44120;SDS011;29783;52.504;13.478;2023-10-09T01:17:01;5.55;;;1.60;;
44120;SDS011;29783;52.504;13.478;2023-10-09T01:19:27;2.75;;;1.80;;
44120;SDS011;29783;52.504;13.478;2023-10-09T01:21:55;3.88;;;2.20;;
44120;SDS011;29783;52.504;13.478;2023-10-09T01:24:29;7.32;;;2.30;;
44120;SDS011;29783;52.504;13.478;2023-10-09T01:26:56;5.65;;;2.30;;
44120;SDS011;29783;52.504;13.478;2023-10-09T01:29:24;3.97;;;2.10;;
44120;SDS011;29783;52.504;13.478;2023-10-09T01:31:55;4.20;;;2.22;;
44120;SDS011;29783;52.504;13.478;2023-10-09T01:36:53;4.50;;;2.50;;
44120;SDS011;29783;52.504;13.478;2023-10-09T01:39:20;6.35;;;2.75;;
44120;SDS011;29783;52.504;13.478;2023-10-09T01:41:55;4.10;;;2.70;;
44120;SDS011;29783;52.504;13.478;2023-10-09T01:44:28;9.98;;;2.80;;
44120;SDS011;29783;52.504;13.478;2023-10-09T01:46:55;5.03;;;2.70;;
44120;SDS011;29783;52.504;13.478;2023-10-09T01:49:23;5.90;;;3.10;;
44120;SDS011;29783;52.504;13.478;2023-10-09T01:51:58;8.00;;;2.40;;
44120;SDS011;29783;52.504;13.478;2023-10-09T01:54:26;6.13;;;2.38;;
44120;SDS011;29783;52.504;13.478;2023-10-09T01:57:05;7.20;;;2.03;;
44120;SDS011;29783;52.504;13.478;2023-10-09T01:59:42;4.72;;;2.20;;
44120;SDS011;29783;52.504;13.478;2023-10-09T02:02:12;4.50;;;2.20;;
44120;SDS011;29783;52.504;13.478;2023-10-09T02:04:44;8.50;;;2.05;;
44120;SDS011;29783;52.504;13.478;2023-10-09T02:07:10;2.75;;;1.98;;
44120;SDS011;29783;52.504;13.478;2023-10-09T02:09:37;6.63;;;2.33;;
44120;SDS011;29783;52.504;13.478;2023-10-09T02:12:11;7.00;;;1.95;;
44120;SDS011;29783;52.504;13.478;2023-10-09T02:14:36;2.92;;;1.70;;
44120;SDS011;29783;52.504;13.478;2023-10-09T02:17:06;4.20;;;2.42;;
44120;SDS011;29783;52.504;13.478;2023-10-09T02:19:43;5.47;;;1.95;;
44120;SDS011;29783;52.504;13.478;2023-10-09T02:22:13;4.68;;;2.05;;
44120;SDS011;29783;52.504;13.478;2023-10-09T02:24:40;6.40;;;2.45;;
44120;SDS011;29783;52.504;13.478;2023-10-09T02:27:14;9.73;;;2.88;;
44120;SDS011;29783;52.504;13.478;2023-10-09T02:29:59;5.05;;;2.38;;
44120;SDS011;29783;52.504;13.478;2023-10-09T02:32:33;3.63;;;2.10;;
44120;SDS011;29783;52.504;13.478;2023-10-09T02:35:00;5.63;;;2.15;;
44120;SDS011;29783;52.504;13.478;2023-10-09T02:37:34;5.18;;;2.38;;
44120;SDS011;29783;52.504;13.478;2023-10-09T02:40:02;5.90;;;2.50;;
44120;SDS011;29783;52.504;13.478;2023-10-09T02:42:33;4.90;;;2.17;;
44120;SDS011;29783;52.504;13.478;2023-10-09T02:45:05;7.55;;;2.28;;
44120;SDS011;29783;52.504;13.478;2023-10-09T02:47:35;7.35;;;3.03;;
44120;SDS011;29783;52.504;13.478;2023-10-09T02:50:05;7.63;;;2.65;;
44120;SDS011;29783;52.504;13.478;2023-10-09T02:52:45;5.18;;;2.55;;
44120;SDS011;29783;52.504;13.478;2023-10-09T02:55:12;8.23;;;2.97;;
44120;SDS011;29783;52.504;13.478;2023-10-09T02:57:54;8.35;;;3.13;;
44120;SDS011;29783;52.504;13.478;2023-10-09T03:00:31;7.70;;;2.70;;
44120;SDS011;29783;52.504;13.478;2023-10-09T03:03:01;6.10;;;2.85;;
44120;SDS011;29783;52.504;13.478;2023-10-09T03:05:31;6.25;;;2.80;;
44120;SDS011;29783;52.504;13.478;2023-10-09T03:07:57;5.95;;;3.03;;
44120;SDS011;29783;52.504;13.478;2023-10-09T03:10:24;7.28;;;2.92;;
44120;SDS011;29783;52.504;13.478;2023-10-09T03:12:50;5.82;;;2.92;;
44120;SDS011;29783;52.504;13.478;2023-10-09T03:15:21;8.05;;;2.83;;
44120;SDS011;29783;52.504;13.478;2023-10-09T03:17:47;12.50;;;3.28;;
44120;SDS011;29783;52.504;13.478;2023-10-09T03:20:13;9.13;;;2.85;;
44120;SDS011;29783;52.504;13.478;2023-10-09T03:22:40;8.23;;;3.38;;
44120;SDS011;29783;52.504;13.478;2023-10-09T03:25:06;5.57;;;2.97;;
44120;SDS011;29783;52.504;13.478;2023-10-09T03:27:42;5.80;;;2.78;;
44120;SDS011;29783;52.504;13.478;2023-10-09T03:30:12;5.78;;;3.10;;
44120;SDS011;29783;52.504;13.478;2023-10-09T03:32:43;8.18;;;3.33;;
44120;SDS011;29783;52.504;13.478;2023-10-09T03:35:12;7.53;;;3.15;;
44120;SDS011;29783;52.504;13.478;2023-10-09T03:37:41;9.35;;;3.10;;
44120;SDS011;29783;52.504;13.478;2023-10-09T03:40:08;5.45;;;3.03;;
44120;SDS011;29783;52.504;13.478;2023-10-09T03:42:41;7.05;;;3.33;;
44120;SDS011;29783;52.504;13.478;2023-10-09T03:45:07;7.28;;;3.00;;
44120;SDS011;29783;52.504;13.478;2023-10-09T03:47:43;8.00;;;2.85;;
44120;SDS011;29783;52.504;13.478;2023-10-09T03:50:13;10.68;;;3.03;;
44120;SDS011;29783;52.504;13.478;2023-10-09T03:52:57;7.15;;;3.08;;
44120;SDS011;29783;52.504;13.478;2023-10-09T03:55:23;6.57;;;2.88;;
44120;SDS011;29783;52.504;13.478;2023-10-09T03:57:52;6.90;;;3.30;;
44120;SDS011;29783;52.504;13.478;2023-10-09T04:00:18;4.40;;;3.13;;
44120;SDS011;29783;52.504;13.478;2023-10-09T04:02:51;8.60;;;3.33;;
44120;SDS011;29783;52.504;13.478;2023-10-09T04:05:17;10.60;;;3.55;;
44120;SDS011;29783;52.504;13.478;2023-10-09T04:07:43;9.60;;;3.47;;
44120;SDS011;29783;52.504;13.478;2023-10-09T04:10:08;6.45;;;3.70;;
44120;SDS011;29783;52.504;13.478;2023-10-09T04:12:57;5.72;;;3.17;;
44120;SDS011;29783;52.504;13.478;2023-10-09T04:15:23;11.23;;;3.33;;
44120;SDS011;29783;52.504;13.478;2023-10-09T04:17:49;8.77;;;3.72;;
44120;SDS011;29783;52.504;13.478;2023-10-09T04:20:17;5.97;;;3.55;;
44120;SDS011;29783;52.504;13.478;2023-10-09T04:22:42;7.28;;;3.33;;
44120;SDS011;29783;52.504;13.478;2023-10-09T04:25:19;5.80;;;3.17;;
44120;SDS011;29783;52.504;13.478;2023-10-09T04:27:58;4.88;;;2.97;;
44120;SDS011;29783;52.504;13.478;2023-10-09T04:30:38;5.22;;;3.40;;
44120;SDS011;29783;52.504;13.478;2023-10-09T04:33:12;7.78;;;3.45;;
44120;SDS011;29783;52.504;13.478;2023-10-09T04:35:53;5.00;;;3.35;;
44120;SDS011;29783;52.504;13.478;2023-10-09T04:38:43;8.27;;;3.50;;
44120;SDS011;29783;52.504;13.478;2023-10-09T04:41:30;6.50;;;3.67;;
44120;SDS011;29783;52.504;13.478;2023-10-09T04:44:08;7.88;;;3.60;;
44120;SDS011;29783;52.504;13.478;2023-10-09T04:46:54;9.52;;;3.38;;
44120;SDS011;29783;52.504;13.478;2023-10-09T04:49:36;4.88;;;2.75;;
44120;SDS011;29783;52.504;13.478;2023-10-09T04:52:26;6.15;;;2.80;;
44120;SDS011;29783;52.504;13.478;2023-10-09T04:54:55;6.57;;;3.33;;
44120;SDS011;29783;52.504;13.478;2023-10-09T04:57:42;5.70;;;2.88;;
44120;SDS011;29783;52.504;13.478;2023-10-09T05:00:09;3.95;;;2.58;;
44120;SDS011;29783;52.504;13.478;2023-10-09T05:03:00;3.60;;;2.60;;
44120;SDS011;29783;52.504;13.478;2023-10-09T05:05:36;12.15;;;3.00;;
44120;SDS011;29783;52.504;13.478;2023-10-09T05:08:11;7.07;;;3.33;;
44120;SDS011;29783;52.504;13.478;2023-10-09T05:10:44;9.35;;;3.30;;
44120;SDS011;29783;52.504;13.478;2023-10-09T05:13:31;5.90;;;3.05;;
44120;SDS011;29783;52.504;13.478;2023-10-09T05:16:03;4.25;;;3.13;;
44120;SDS011;29783;52.504;13.478;2023-10-09T05:18:50;4.88;;;2.95;;
44120;SDS011;29783;52.504;13.478;2023-10-09T05:21:35;7.43;;;3.60;;
44120;SDS011;29783;52.504;13.478;2023-10-09T05:24:10;7.20;;;3.63;;
44120;SDS011;29783;52.504;13.478;2023-10-09T05:26:43;5.15;;;3.17;;
44120;SDS011;29783;52.504;13.478;2023-10-09T05:29:13;4.45;;;3.05;;
44120;SDS011;29783;52.504;13.478;2023-10-09T05:31:46;6.10;;;3.40;;
44120;SDS011;29783;52.504;13.478;2023-10-09T05:34:22;4.50;;;3.10;;
44120;SDS011;29783;52.504;13.478;2023-10-09T05:36:51;6.45;;;3.50;;
44120;SDS011;29783;52.504;13.478;2023-10-09T05:39:17;4.47;;;2.97;;
44120;SDS011;29783;52.504;13.478;2023-10-09T05:42:06;7.32;;;2.83;;
44120;SDS011;29783;52.504;13.478;2023-10-09T05:44:43;8.35;;;3.10;;
44120;SDS011;29783;52.504;13.478;2023-10-09T05:47:41;4.72;;;2.88;;
44120;SDS011;29783;52.504;13.478;2023-10-09T05:50:30;5.30;;;2.80;;
44120;SDS011;29783;52.504;13.478;2023-10-09T05:52:59;9.07;;;3.10;;
44120;SDS011;29783;52.504;13.478;2023-10-09T05:55:26;5.88;;;3.03;;
44120;SDS011;29783;52.504;13.478;2023-10-09T05:58:11;7.28;;;3.08;;
44120;SDS011;29783;52.504;13.478;2023-10-09T06:00:55;4.72;;;3.13;;
44120;SDS011;29783;52.504;13.478;2023-10-09T06:03:39;5.75;;;2.95;;
44120;SDS011;29783;52.504;13.478;2023-10-09T06:09:07;7.45;;;2.80;;
44120;SDS011;29783;52.504;13.478;2023-10-09T06:11:38;4.53;;;2.72;;
44120;SDS011;29783;52.504;13.478;2023-10-09T06:14:05;5.78;;;3.08;;
44120;SDS011;29783;52.504;13.478;2023-10-09T06:16:37;5.75;;;3.40;;
44120;SDS011;29783;52.504;13.478;2023-10-09T06:19:06;3.95;;;2.80;;
44120;SDS011;29783;52.504;13.478;2023-10-09T06:21:36;4.80;;;2.80;;
44120;SDS011;29783;52.504;13.478;2023-10-09T06:24:26;4.18;;;2.85;;
44120;SDS011;29783;52.504;13.478;2023-10-09T06:26:58;4.53;;;2.83;;
44120;SDS011;29783;52.504;13.478;2023-10-09T06:29:28;4.40;;;2.60;;
44120;SDS011;29783;52.504;13.478;2023-10-09T06:32:06;3.95;;;2.95;;
44120;SDS011;29783;52.504;13.478;2023-10-09T06:34:51;3.47;;;2.58;;
44120;SDS011;29783;52.504;13.478;2023-10-09T06:37:46;3.53;;;2.70;;
44120;SDS011;29783;52.504;13.478;2023-10-09T06:40:39;4.75;;;2.47;;
44120;SDS011;29783;52.504;13.478;2023-10-09T06:43:16;4.72;;;2.67;;
44120;SDS011;29783;52.504;13.478;2023-10-09T06:45:52;5.60;;;3.10;;
44120;SDS011;29783;52.504;13.478;2023-10-09T06:48:40;6.00;;;3.08;;
44120;SDS011;29783;52.504;13.478;2023-10-09T06:51:09;5.03;;;2.60;;
44120;SDS011;29783;52.504;13.478;2023-10-09T06:53:51;9.63;;;3.30;;
44120;SDS011;29783;52.504;13.478;2023-10-09T06:56:20;4.53;;;2.65;;
44120;SDS011;29783;52.504;13.478;2023-10-09T06:58:59;4.50;;;2.50;;
44120;SDS011;29783;52.504;13.478;2023-10-09T07:01:40;5.97;;;2.80;;
44120;SDS011;29783;52.504;13.478;2023-10-09T07:04:09;5.40;;;2.80;;
44120;SDS011;29783;52.504;13.478;2023-10-09T07:06:46;9.07;;;2.78;;
44120;SDS011;29783;52.504;13.478;2023-10-09T07:09:13;7.63;;;2.53;;
44120;SDS011;29783;52.504;13.478;2023-10-09T07:11:40;2.97;;;2.47;;
44120;SDS011;29783;52.504;13.478;2023-10-09T07:14:14;5.40;;;2.83;;
44120;SDS011;29783;52.504;13.478;2023-10-09T07:19:25;7.97;;;2.97;;
44120;SDS011;29783;52.504;13.478;2023-10-09T07:22:02;6.97;;;2.50;;
44120;SDS011;29783;52.504;13.478;2023-10-09T07:24:29;4.15;;;2.63;;
44120;SDS011;29783;52.504;13.478;2023-10-09T07:27:17;5.03;;;2.53;;
44120;SDS011;29783;52.504;13.478;2023-10-09T07:30:03;5.15;;;2.45;;
44120;SDS011;29783;52.504;13.478;2023-10-09T07:32:49;7.18;;;3.00;;
44120;SDS011;29783;52.504;13.478;2023-10-09T07:35:17;6.43;;;3.05;;
44120;SDS011;29783;52.504;13.478;2023-10-09T07:38:03;4.05;;;2.42;;
44120;SDS011;29783;52.504;13.478;2023-10-09T07:40:28;6.70;;;3.13;;
44120;SDS011;29783;52.504;13.478;2023-10-09T07:42:56;4.03;;;2.72;;
44120;SDS011;29783;52.504;13.478;2023-10-09T07:45:30;4.25;;;2.97;;
44120;SDS011;29783;52.504;13.478;2023-10-09T07:47:55;6.38;;;2.90;;
44120;SDS011;29783;52.504;13.478;2023-10-09T07:50:37;5.25;;;2.58;;
44120;SDS011;29783;52.504;13.478;2023-10-09T07:53:06;5.90;;;2.78;;
44120;SDS011;29783;52.504;13.478;2023-10-09T07:55:50;4.32;;;2.53;;
44120;SDS011;29783;52.504;13.478;2023-10-09T07:58:21;4.43;;;2.90;;
44120;SDS011;29783;52.504;13.478;2023-10-09T08:00:57;6.15;;;3.15;;
44120;SDS011;29783;52.504;13.478;2023-10-09T08:03:23;6.55;;;3.33;;
44120;SDS011;29783;52.504;13.478;2023-10-09T08:05:57;3.55;;;2.58;;
44120;SDS011;29783;52.504;13.478;2023-10-09T08:08:43;7.13;;;3.20;;
44120;SDS011;29783;52.504;13.478;2023-10-09T08:11:32;4.68;;;2.60;;
44120;SDS011;29783;52.504;13.478;2023-10-09T08:14:20;10.30;;;2.83;;
44120;SDS011;29783;52.504;13.478;2023-10-09T08:17:00;7.65;;;2.50;;
44120;SDS011;29783;52.504;13.478;2023-10-09T08:22:25;2.80;;;2.42;;
44120;SDS011;29783;52.504;13.478;2023-10-09T08:24:52;3.78;;;2.75;;
44120;SDS011;29783;52.504;13.478;2023-10-09T08:27:24;3.58;;;2.83;;
44120;SDS011;29783;52.504;13.478;2023-10-09T08:30:13;5.95;;;2.92;;
44120;SDS011;29783;52.504;13.478;2023-10-09T08:32:39;7.32;;;3.28;;
44120;SDS011;29783;52.504;13.478;2023-10-09T08:35:05;8.88;;;3.20;;
44120;SDS011;29783;52.504;13.478;2023-10-09T08:37:54;6.25;;;2.80;;
44120;SDS011;29783;52.504;13.478;2023-10-09T08:40:32;3.42;;;2.65;;
44120;SDS011;29783;52.504;13.478;2023-10-09T08:43:02;5.57;;;2.97;;
44120;SDS011;29783;52.504;13.478;2023-10-09T08:45:43;5.43;;;3.33;;
44120;SDS011;29783;52.504;13.478;2023-10-09T08:48:12;5.40;;;3.00;;
44120;SDS011;29783;52.504;13.478;2023-10-09T08:50:40;4.47;;;2.38;;
44120;SDS011;29783;52.504;13.478;2023-10-09T08:53:08;5.20;;;2.75;;
44120;SDS011;29783;52.504;13.478;2023-10-09T08:55:38;7.60;;;3.05;;
44120;SDS011;29783;52.504;13.478;2023-10-09T08:58:05;5.95;;;2.65;;
44120;SDS011;29783;52.504;13.478;2023-10-09T09:00:53;4.70;;;2.72;;
44120;SDS011;29783;52.504;13.478;2023-10-09T09:03:20;6.97;;;2.92;;
44120;SDS011;29783;52.504;13.478;2023-10-09T09:06:00;8.90;;;3.05;;
44120;SDS011;29783;52.504;13.478;2023-10-09T09:08:27;6.57;;;3.03;;
44120;SDS011;29783;52.504;13.478;2023-10-09T09:11:10;4.32;;;3.15;;
44120;SDS011;29783;52.504;13.478;2023-10-09T09:13:41;6.40;;;3.30;;
44120;SDS011;29783;52.504;13.478;2023-10-09T09:16:20;10.52;;;3.15;;
44120;SDS011;29783;52.504;13.478;2023-10-09T09:18:53;5.80;;;2.72;;
44120;SDS011;29783;52.504;13.478;2023-10-09T09:21:39;4.55;;;3.05;;
44120;SDS011;29783;52.504;13.478;2023-10-09T09:24:08;4.50;;;3.03;;
44120;SDS011;29783;52.504;13.478;2023-10-09T09:26:48;8.02;;;2.97;;
44120;SDS011;29783;52.504;13.478;2023-10-09T09:32:02;6.97;;;3.45;;
44120;SDS011;29783;52.504;13.478;2023-10-09T09:34:52;4.60;;;2.90;;
44120;SDS011;29783;52.504;13.478;2023-10-09T09:37:30;6.03;;;3.22;;
44120;SDS011;29783;52.504;13.478;2023-10-09T09:40:04;5.68;;;3.10;;
44120;SDS011;29783;52.504;13.478;2023-10-09T09:42:42;8.60;;;3.15;;
44120;SDS011;29783;52.504;13.478;2023-10-09T09:45:13;7.40;;;3.47;;
44120;SDS011;29783;52.504;13.478;2023-10-09T09:47:39;8.52;;;3.15;;
44120;SDS011;29783;52.504;13.478;2023-10-09T09:50:17;10.07;;;3.13;;
44120;SDS011;29783;52.504;13.478;2023-10-09T09:52:54;9.75;;;3.47;;
44120;SDS011;29783;52.504;13.478;2023-10-09T09:55:22;13.73;;;3.20;;
44120;SDS011;29783;52.504;13.478;2023-10-09T09:57:56;4.75;;;2.83;;
44120;SDS011;29783;52.504;13.478;2023-10-09T10:00:23;5.30;;;2.90;;
44120;SDS011;29783;52.504;13.478;2023-10-09T10:03:00;8.32;;;2.95;;
44120;SDS011;29783;52.504;13.478;2023-10-09T10:05:35;5.80;;;2.75;;
44120;SDS011;29783;52.504;13.478;2023-10-09T10:08:02;7.28;;;2.50;;
44120;SDS011;29783;52.504;13.478;2023-10-09T10:10:39;4.53;;;2.80;;
44120;SDS011;29783;52.504;13.478;2023-10-09T10:13:20;4.43;;;2.45;;
44120;SDS011;29783;52.504;13.478;2023-10-09T10:16:06;5.82;;;2.83;;
44120;SDS011;29783;52.504;13.478;2023-10-09T10:18:55;8.00;;;3.10;;
44120;SDS011;29783;52.504;13.478;2023-10-09T10:21:39;5.63;;;3.08;;
44120;SDS011;29783;52.504;13.478;2023-10-09T10:35:40;8.50;;;3.35;;
44120;SDS011;29783;52.504;13.478;2023-10-09T10:38:25;8.10;;;2.65;;
44120;SDS011;29783;52.504;13.478;2023-10-09T10:41:18;5.00;;;3.13;;
44120;SDS011;29783;52.504;13.478;2023-10-09T10:43:50;5.40;;;3.00;;
44120;SDS011;29783;52.504;13.478;2023-10-09T10:46:15;7.38;;;2.83;;
44120;SDS011;29783;52.504;13.478;2023-10-09T10:49:04;7.13;;;2.75;;
44120;SDS011;29783;52.504;13.478;2023-10-09T10:51:51;4.80;;;2.85;;
44120;SDS011;29783;52.504;13.478;2023-10-09T10:54:26;4.90;;;3.13;;
44120;SDS011;29783;52.504;13.478;2023-10-09T10:56:58;4.50;;;2.75;;
44120;SDS011;29783;52.504;13.478;2023-10-09T10:59:25;6.60;;;2.80;;
44120;SDS011;29783;52.504;13.478;2023-10-09T11:02:09;4.68;;;2.90;;
44120;SDS011;29783;52.504;13.478;2023-10-09T11:04:36;5.05;;;2.47;;
44120;SDS011;29783;52.504;13.478;2023-10-09T11:07:02;7.78;;;3.08;;
44120;SDS011;29783;52.504;13.478;2023-10-09T11:09:56;4.38;;;2.67;;
44120;SDS011;29783;52.504;13.478;2023-10-09T11:15:29;12.98;;;2.92;;
44120;SDS011;29783;52.504;13.478;2023-10-09T11:18:05;4.88;;;3.50;;
44120;SDS011;29783;52.504;13.478;2023-10-09T11:20:36;4.75;;;2.88;;
44120;SDS011;29783;52.504;13.478;2023-10-09T11:23:04;3.22;;;2.65;;
44120;SDS011;29783;52.504;13.478;2023-10-09T11:25:37;5.85;;;2.90;;
44120;SDS011;29783;52.504;13.478;2023-10-09T11:28:18;10.38;;;3.60;;
44120;SDS011;29783;52.504;13.478;2023-10-09T11:31:20;6.78;;;3.35;;
44120;SDS011;29783;52.504;13.478;2023-10-09T11:33:48;6.30;;;3.10;;
44120;SDS011;29783;52.504;13.478;2023-10-09T11:36:16;4.78;;;3.30;;
44120;SDS011;29783;52.504;13.478;2023-10-09T11:38:46;7.88;;;3.22;;
44120;SDS011;29783;52.504;13.478;2023-10-09T11:41:17;5.68;;;3.30;;
44120;SDS011;29783;52.504;13.478;2023-10-09T11:43:53;6.50;;;3.38;;
44120;SDS011;29783;52.504;13.478;2023-10-09T11:46:22;8.98;;;3.75;;
44120;SDS011;29783;52.504;13.478;2023-10-09T11:49:07;8.75;;;3.78;;
44120;SDS011;29783;52.504;13.478;2023-10-09T11:51:51;6.88;;;3.53;;
44120;SDS011;29783;52.504;13.478;2023-10-09T11:54:49;6.15;;;3.90;;
44120;SDS011;29783;52.504;13.478;2023-10-09T11:57:14;5.70;;;3.17;;
44120;SDS011;29783;52.504;13.478;2023-10-09T11:59:42;7.70;;;2.92;;
44120;SDS011;29783;52.504;13.478;2023-10-09T12:02:08;7.60;;;3.80;;
44120;SDS011;29783;52.504;13.478;2023-10-09T12:04:41;9.90;;;3.72;;
44120;SDS011;29783;52.504;13.478;2023-10-09T12:07:10;7.07;;;3.67;;
44120;SDS011;29783;52.504;13.478;2023-10-09T12:09:36;7.75;;;4.25;;
44120;SDS011;29783;52.504;13.478;2023-10-09T12:12:05;7.72;;;3.70;;
44120;SDS011;29783;52.504;13.478;2023-10-09T12:14:32;7.40;;;4.03;;
44120;SDS011;29783;52.504;13.478;2023-10-09T12:17:00;11.80;;;3.83;;
44120;SDS011;29783;52.504;13.478;2023-10-09T12:19:39;8.88;;;4.10;;
44120;SDS011;29783;52.504;13.478;2023-10-09T12:22:06;8.95;;;4.05;;
44120;SDS011;29783;52.504;13.478;2023-10-09T12:24:41;8.25;;;3.40;;
44120;SDS011;29783;52.504;13.478;2023-10-09T12:27:08;8.20;;;3.88;;
44120;SDS011;29783;52.504;13.478;2023-10-09T12:29:36;11.10;;;4.32;;
44120;SDS011;29783;52.504;13.478;2023-10-09T12:32:02;7.32;;;3.75;;
44120;SDS011;29783;52.504;13.478;2023-10-09T12:34:28;6.18;;;4.00;;
44120;SDS011;29783;52.504;13.478;2023-10-09T12:36:59;8.13;;;4.40;;
44120;SDS011;29783;52.504;13.478;2023-10-09T12:39:27;5.70;;;4.55;;
44120;SDS011;29783;52.504;13.478;2023-10-09T12:42:01;13.25;;;4.72;;
44120;SDS011;29783;52.504;13.478;2023-10-09T12:44:33;8.63;;;4.72;;
44120;SDS011;29783;52.504;13.478;2023-10-09T12:47:04;11.57;;;5.72;;
44120;SDS011;29783;52.504;13.478;2023-10-09T12:49:36;12.23;;;5.13;;
44120;SDS011;29783;52.504;13.478;2023-10-09T12:52:04;9.63;;;5.00;;
44120;SDS011;29783;52.504;13.478;2023-10-09T12:54:40;6.45;;;5.10;;
44120;SDS011;29783;52.504;13.478;2023-10-09T12:57:06;11.43;;;5.28;;
44120;SDS011;29783;52.504;13.478;2023-10-09T12:59:38;7.93;;;5.00;;
44120;SDS011;29783;52.504;13.478;2023-10-09T13:02:10;7.90;;;5.13;;
44120;SDS011;29783;52.504;13.478;2023-10-09T13:04:39;6.35;;;5.03;;
44120;SDS011;29783;52.504;13.478;2023-10-09T13:07:07;9.85;;;5.57;;
44120;SDS011;29783;52.504;13.478;2023-10-09T13:09:33;7.07;;;4.68;;
44120;SDS011;29783;52.504;13.478;2023-10-09T13:14:33;6.22;;;4.43;;
44120;SDS011;29783;52.504;13.478;2023-10-09T13:17:00;10.80;;;5.05;;
44120;SDS011;29783;52.504;13.478;2023-10-09T13:19:33;8.40;;;5.30;;
44120;SDS011;29783;52.504;13.478;2023-10-09T13:21:59;7.65;;;5.05;;
44120;SDS011;29783;52.504;13.478;2023-10-09T13:24:28;8.52;;;5.18;;
44120;SDS011;29783;52.504;13.478;2023-10-09T13:26:55;6.80;;;5.40;;
44120;SDS011;29783;52.504;13.478;2023-10-09T13:29:23;6.90;;;4.68;;
44120;SDS011;29783;52.504;13.478;2023-10-09T13:31:49;9.63;;;4.70;;
44120;SDS011;29783;52.504;13.478;2023-10-09T13:34:17;7.60;;;4.97;;
44120;SDS011;29783;52.504;13.478;2023-10-09T13:36:43;6.57;;;5.03;;
44120;SDS011;29783;52.504;13.478;2023-10-09T13:39:18;8.57;;;5.05;;
44120;SDS011;29783;52.504;13.478;2023-10-09T13:41:46;9.90;;;5.32;;
44120;SDS011;29783;52.504;13.478;2023-10-09T13:44:13;9.85;;;5.32;;
44120;SDS011;29783;52.504;13.478;2023-10-09T13:46:38;13.23;;;5.40;;
44120;SDS011;29783;52.504;13.478;2023-10-09T13:49:08;18.52;;;5.57;;
44120;SDS011;29783;52.504;13.478;2023-10-09T13:51:39;16.38;;;5.75;;
44120;SDS011;29783;52.504;13.478;2023-10-09T13:54:12;33.00;;;8.20;;
44120;SDS011;29783;52.504;13.478;2023-10-09T13:57:03;12.50;;;5.28;;
44120;SDS011;29783;52.504;13.478;2023-10-09T13:59:30;10.77;;;5.53;;
44120;SDS011;29783;52.504;13.478;2023-10-09T14:01:56;11.75;;;6.00;;
44120;SDS011;29783;52.504;13.478;2023-10-09T14:04:23;7.53;;;5.72;;
44120;SDS011;29783;52.504;13.478;2023-10-09T14:06:49;8.45;;;5.40;;
44120;SDS011;29783;52.504;13.478;2023-10-09T14:09:26;9.15;;;5.30;;
44120;SDS011;29783;52.504;13.478;2023-10-09T14:11:56;11.20;;;6.45;;
44120;SDS011;29783;52.504;13.478;2023-10-09T14:14:32;8.63;;;5.53;;
44120;SDS011;29783;52.504;13.478;2023-10-09T14:17:04;7.70;;;5.25;;
44120;SDS011;29783;52.504;13.478;2023-10-09T14:19:36;8.83;;;4.50;;
44120;SDS011;29783;52.504;13.478;2023-10-09T14:22:13;9.45;;;4.85;;
44120;SDS011;29783;52.504;13.478;2023-10-09T14:24:44;9.57;;;5.40;;
44120;SDS011;29783;52.504;13.478;2023-10-09T14:27:13;6.28;;;5.03;;
44120;SDS011;29783;52.504;13.478;2023-10-09T14:29:45;8.43;;;4.97;;
44120;SDS011;29783;52.504;13.478;2023-10-09T14:32:15;6.90;;;4.97;;
44120;SDS011;29783;52.504;13.478;2023-10-09T14:34:41;8.10;;;4.75;;
44120;SDS011;29783;52.504;13.478;2023-10-09T14:37:11;7.25;;;5.43;;
44120;SDS011;29783;52.504;13.478;2023-10-09T14:39:40;7.45;;;5.18;;
44120;SDS011;29783;52.504;13.478;2023-10-09T14:42:13;4.97;;;4.38;;
44120;SDS011;29783;52.504;13.478;2023-10-09T14:44:42;5.90;;;4.80;;
44120;SDS011;29783;52.504;13.478;2023-10-09T14:47:10;8.65;;;5.05;;
44120;SDS011;29783;52.504;13.478;2023-10-09T14:49:36;8.20;;;5.45;;
44120;SDS011;29783;52.504;13.478;2023-10-09T14:52:08;7.97;;;5.22;;
44120;SDS011;29783;52.504;13.478;2023-10-09T14:54:35;8.85;;;5.45;;
44120;SDS011;29783;52.504;13.478;2023-10-09T14:57:01;14.02;;;5.45;;
44120;SDS011;29783;52.504;13.478;2023-10-09T14:59:34;7.80;;;5.75;;
44120;SDS011;29783;52.504;13.478;2023-10-09T15:02:01;9.93;;;5.68;;
44120;SDS011;29783;52.504;13.478;2023-10-09T15:04:27;13.05;;;5.78;;
44120;SDS011;29783;52.504;13.478;2023-10-09T15:06:54;9.77;;;5.25;;
44120;SDS011;29783;52.504;13.478;2023-10-09T15:09:20;8.57;;;6.07;;
44120;SDS011;29783;52.504;13.478;2023-10-09T15:11:53;10.18;;;6.28;;
44120;SDS011;29783;52.504;13.478;2023-10-09T15:14:19;9.07;;;5.93;;
44120;SDS011;29783;52.504;13.478;2023-10-09T15:16:45;9.35;;;6.97;;
44120;SDS011;29783;52.504;13.478;2023-10-09T15:19:13;11.70;;;6.70;;
44120;SDS011;29783;52.504;13.478;2023-10-09T15:21:39;12.50;;;6.32;;
44120;SDS011;29783;52.504;13.478;2023-10-09T15:24:15;13.77;;;6.40;;
44120;SDS011;29783;52.504;13.478;2023-10-09T15:26:44;12.07;;;6.05;;
44120;SDS011;29783;52.504;13.478;2023-10-09T15:29:31;10.30;;;6.47;;
44120;SDS011;29783;52.504;13.478;2023-10-09T15:31:58;11.50;;;5.88;;
44120;SDS011;29783;52.504;13.478;2023-10-09T15:34:39;9.45;;;5.85;;
44120;SDS011;29783;52.504;13.478;2023-10-09T15:37:06;9.48;;;5.75;;
44120;SDS011;29783;52.504;13.478;2023-10-09T15:39:33;11.13;;;5.85;;